Avella, Pennsylvania
Current Conditions -  °F | °C
As of 10:53 AM on Saturday 25 Oct 2014 (Local Time) from KHLG Reporting Station
Overcast Overcast  
Wind Chill: 51°   Ceiling: 9500
Heat Index: 51°   Visibility: 10mi
Dew Point: 43°   Wind: 9mph
Humidity: 74%   Direction: 220°SW
Pressure: 29.96"   Gusts: NA
Location:  40.28°N, 80.46°W
Report Text: KHLG 251453Z 22008KT 10SM OVC095 11/06 A2996 RMK AO2 SLP150 T01060061 58004
Loading
Personal Weather Stations






























Interactive Weather Map New forecast layout! Learn more

10-Day Weather Forecast

Advertisements
Track Severe Weather on mobile